Airfield :
LOGIN :

Register | Disclaimer

   EN    FR    IT 

 










Legend :    VFR   Marginal VFR   IFR   Intensive IFR   Very Intensive IFR
Visi :
Ceiling :
>= 8 km
>= 3000ft
5 to 8 km
1000 to 3000 ft
1500m to 5 km
500 to 1000 ft
800 to 1500m
200 to 500 ft
< 800m
< 200 ft
Symbols :   Thunderstorms  Fog  Heavy snow  Heavy precipitations  Wind > 20 kt
SIGMETs :     Misc.  Thunderstorms  Icing  Turbulence  Mountain Waves  Volcanic Ashes






- Airport Elevation : 348 ft
- IATA code : LDV


LFRJ - Landivisiau

CURRENT METAR :
  • 291200Z AUTO 34018KT 9999 BKN014/// OVC020/// ///TCU 14/12 Q1005 TEMPO 34020G30KT 4000 SHRA BKN015TCU BKN020CB

EXPIRED METARs :
  • 291130Z AUTO 33017KT 9999 BKN017 OVC025 13/11 Q1005 TEMPO 34020G30KT 4000 SHRA BKN015TCU BKN020CB
  • 291100Z AUTO 33016KT 9999 BKN020 OVC028 14/11 Q1005 TEMPO 31015G25KT 3000 SHRA BKN010 BKN015CB
  • 291030Z AUTO 33015KT 9999 BKN020 BKN025 BKN033 13/10 Q1004 TEMPO 31015G25KT 3000 SHRA BKN010 BKN015CB
  • 291000Z AUTO 32016KT 9999 BKN022 BKN032 BKN039 13/10 Q1004 TEMPO 31015G25KT 3000 SHRA BKN010 BKN015CB
  • 290930Z AUTO 32012KT 9999 BKN020 BKN027 14/10 Q1004 TEMPO 31015G25KT 3000 SHRA BKN010 BKN015CB
  • 290900Z AUTO 32012KT 280V340 9999 BKN018 BKN027 OVC068 13/11 Q1004 TEMPO 31015G25KT 3000 SHRA BKN010 BKN015CB

TAF TAF LFRJ
Valid from the 29 at 12:00 until the 29 at 21:00 UTC


291100Z 2912/2921 33015KT 9999 BKN020 BKN030
TEMPO 2912/2915 34020G30KT
PROB30
TEMPO 2912/2918 4000 SHRA BKN015TCU BKN020CB



MET'MAP, your aeronautical weather chart ! - Copyright ORBIFLY December 2007 - Disclaimer

ORBIFLY MET'MAP TEAM :

Programming & Development : Alexandra Zaïnal
Original concept : Baudouin d'Aumeries
Technical & hardware support : Manuel Goepfert
Assistance : Marc-Olivier Méhu




SOURCES & CREDITS :

   NOAA